createdAt,value
2023-03-22T00:02:24.895Z,99.57
2023-03-22T00:05:07.287Z,99.56
2023-03-22T00:07:43.065Z,99.38
2023-03-22T00:10:45.938Z,99.42
2023-03-22T00:13:17.790Z,99.21
2023-03-22T00:21:18.011Z,99.47
2023-03-22T00:23:48.847Z,99.74
2023-03-22T00:26:21.419Z,99.56
2023-03-22T00:28:48.799Z,99.25
2023-03-22T00:31:24.584Z,99.39
2023-03-22T00:33:58.110Z,99.56
2023-03-22T00:36:31.196Z,99.77
2023-03-22T00:38:58.365Z,99.77
2023-03-22T00:41:25.741Z,100.00
2023-03-22T00:43:53.609Z,100.00
2023-03-22T00:46:25.161Z,100.00
2023-03-22T00:49:14.003Z,100.00
2023-03-22T00:51:49.804Z,100.00
2023-03-22T00:54:17.988Z,100.00
2023-03-22T00:56:50.458Z,100.00
2023-03-22T00:59:17.872Z,100.00
2023-03-22T01:01:54.494Z,100.00
2023-03-22T01:04:26.366Z,100.00
2023-03-22T01:06:59.884Z,100.00
2023-03-22T01:09:40.583Z,100.00
2023-03-22T01:12:27.381Z,100.00
2023-03-22T01:15:09.455Z,100.00
2023-03-22T01:17:36.645Z,100.00
2023-03-22T01:20:06.480Z,100.00
2023-03-22T01:22:35.091Z,100.00
2023-03-22T01:25:05.009Z,100.00
2023-03-22T01:30:19.846Z,100.00
2023-03-22T01:32:49.962Z,100.00
2023-03-22T01:35:20.060Z,100.00
2023-03-22T01:37:50.151Z,100.00
2023-03-22T01:40:17.733Z,100.00
2023-03-22T01:42:50.693Z,100.00
2023-03-22T01:45:48.346Z,100.00
2023-03-22T01:48:27.841Z,100.00
2023-03-22T01:51:05.699Z,100.00
2023-03-22T01:53:45.517Z,100.00
2023-03-22T01:56:25.974Z,100.00
2023-03-22T01:59:06.581Z,100.00
2023-03-22T02:01:43.623Z,100.00
2023-03-22T02:04:24.145Z,100.00
2023-03-22T02:06:57.581Z,100.00
2023-03-22T02:09:34.866Z,100.00
2023-03-22T02:12:38.256Z,100.00
2023-03-22T02:15:24.183Z,100.00
2023-03-22T02:18:19.631Z,100.00
2023-03-22T02:21:25.606Z,100.00
2023-03-22T02:24:31.510Z,100.00
2023-03-22T02:27:15.996Z,100.00
2023-03-22T02:29:52.906Z,100.00
2023-03-22T02:32:47.309Z,100.00
2023-03-22T02:35:52.333Z,100.00
2023-03-22T02:38:34.742Z,100.00
2023-03-22T02:41:36.282Z,100.00
2023-03-22T02:44:13.398Z,100.00
2023-03-22T02:46:46.751Z,100.00
2023-03-22T02:49:35.828Z,100.00
2023-03-22T02:52:22.137Z,100.00
2023-03-22T02:55:07.035Z,100.00
2023-03-22T02:57:52.692Z,100.00
2023-03-22T03:00:22.680Z,100.00
2023-03-22T03:03:11.830Z,100.00
2023-03-22T03:05:44.203Z,100.00
2023-03-22T03:08:23.245Z,100.00
2023-03-22T03:10:54.778Z,100.00
2023-03-22T03:13:23.324Z,100.00
2023-03-22T03:15:57.899Z,100.00
2023-03-22T03:18:48.694Z,100.00
2023-03-22T03:21:32.857Z,100.00
2023-03-22T03:24:07.614Z,100.00
2023-03-22T03:27:13.726Z,100.00
2023-03-22T03:29:51.502Z,100.00
2023-03-22T03:32:35.743Z,100.00
2023-03-22T03:35:23.241Z,100.00
2023-03-22T03:38:09.338Z,100.00
2023-03-22T03:40:48.330Z,100.00
2023-03-22T03:43:21.546Z,100.00
2023-03-22T03:46:02.002Z,100.00
2023-03-22T03:48:43.599Z,100.00
2023-03-22T03:51:16.227Z,100.00
2023-03-22T03:53:45.473Z,100.00
2023-03-22T03:56:12.498Z,100.00
2023-03-22T03:58:46.970Z,100.00
2023-03-22T04:01:14.314Z,100.00
2023-03-22T04:03:56.592Z,100.00
2023-03-22T04:06:29.020Z,100.00
2023-03-22T04:09:01.361Z,100.00
2023-03-22T04:11:30.757Z,100.00
2023-03-22T04:14:13.545Z,100.00
2023-03-22T04:16:42.814Z,100.00
2023-03-22T04:19:10.245Z,100.00
2023-03-22T04:21:41.790Z,100.00
2023-03-22T04:25:00.615Z,100.00
2023-03-22T04:30:28.766Z,100.00
2023-03-22T04:32:56.756Z,100.00
2023-03-22T04:35:24.116Z,100.00
2023-03-22T04:37:51.847Z,100.00
2023-03-22T04:40:22.727Z,100.00
2023-03-22T04:42:50.528Z,100.00
2023-03-22T04:45:25.338Z,100.00
2023-03-22T04:50:34.615Z,100.00
2023-03-22T04:53:02.356Z,100.00
2023-03-22T04:55:30.484Z,100.00
2023-03-22T04:57:58.304Z,100.00
2023-03-22T05:00:25.682Z,100.00
2023-03-22T05:02:54.350Z,100.00
2023-03-22T05:05:23.923Z,100.00
2023-03-22T05:08:05.090Z,100.00
2023-03-22T05:10:41.644Z,100.00
2023-03-22T05:13:11.617Z,100.00
2023-03-22T05:15:48.450Z,100.00
2023-03-22T05:21:16.441Z,100.00
2023-03-22T05:23:48.340Z,100.00
2023-03-22T05:26:20.562Z,100.00
2023-03-22T05:28:51.697Z,100.00
2023-03-22T05:34:19.138Z,100.00
2023-03-22T05:36:58.894Z,100.00
2023-03-22T05:39:25.979Z,100.00
2023-03-22T05:41:53.944Z,100.00
2023-03-22T05:44:27.291Z,100.00
2023-03-22T05:47:03.269Z,100.00
2023-03-22T05:49:33.458Z,100.00
2023-03-22T05:52:04.731Z,100.00
2023-03-22T05:54:37.545Z,100.00
2023-03-22T05:57:09.579Z,100.00
2023-03-22T05:59:43.061Z,100.00
2023-03-22T06:02:17.675Z,100.00
2023-03-22T06:04:45.763Z,99.88
2023-03-22T06:07:13.460Z,99.83
2023-03-22T06:09:48.608Z,100.00
2023-03-22T06:12:23.720Z,99.59
2023-03-22T06:14:55.741Z,99.66
2023-03-22T06:17:24.206Z,99.46
2023-03-22T06:19:53.351Z,99.29
2023-03-22T06:22:25.884Z,99.10
2023-03-22T06:24:56.731Z,98.99
2023-03-22T06:27:29.317Z,98.84
2023-03-22T06:30:01.690Z,98.88
2023-03-22T06:32:35.515Z,98.70
2023-03-22T06:35:09.194Z,98.55
2023-03-22T06:37:41.080Z,98.27
2023-03-22T06:40:09.433Z,98.33
2023-03-22T06:42:37.294Z,97.68
2023-03-22T06:45:11.465Z,97.53
2023-03-22T06:47:47.871Z,97.64
2023-03-22T06:50:17.154Z,97.34
2023-03-22T06:52:48.379Z,97.41
2023-03-22T06:55:21.469Z,97.12
2023-03-22T06:57:54.451Z,97.09
2023-03-22T07:03:04.668Z,96.92
2023-03-22T07:05:32.864Z,96.69
2023-03-22T07:07:59.966Z,96.55
2023-03-22T07:10:29.253Z,96.20
2023-03-22T07:12:56.463Z,96.26
2023-03-22T07:15:25.200Z,95.78
2023-03-22T07:17:53.112Z,95.40
2023-03-22T07:20:21.102Z,95.17
2023-03-22T07:22:51.564Z,95.17
2023-03-22T07:25:18.860Z,95.05
2023-03-22T07:27:55.153Z,94.09
2023-03-22T07:30:22.218Z,94.05
2023-03-22T07:32:49.110Z,94.04
2023-03-22T07:35:17.701Z,93.65
2023-03-22T07:37:52.862Z,92.06
2023-03-22T07:40:20.953Z,93.37
2023-03-22T07:42:51.542Z,92.59
2023-03-22T07:45:20.802Z,92.41
2023-03-22T07:47:49.423Z,91.85
2023-03-22T07:50:18.131Z,92.49
2023-03-22T07:52:54.157Z,92.27
2023-03-22T07:55:21.000Z,91.67
2023-03-22T07:57:48.082Z,90.87
2023-03-22T08:00:18.344Z,89.26
2023-03-22T08:02:47.946Z,89.36
2023-03-22T08:05:15.082Z,88.34
2023-03-22T08:07:42.839Z,88.25
2023-03-22T08:10:11.404Z,88.14
2023-03-22T08:12:38.307Z,87.27
2023-03-22T08:15:05.909Z,86.75
2023-03-22T08:17:32.686Z,84.39
2023-03-22T08:19:59.609Z,88.21
2023-03-22T08:22:30.322Z,80.53
2023-03-22T08:24:58.690Z,81.11
2023-03-22T08:27:26.322Z,80.88
2023-03-22T08:29:53.206Z,79.12
2023-03-22T08:32:20.403Z,79.95
2023-03-22T08:34:48.720Z,79.47
2023-03-22T08:37:16.327Z,79.20
2023-03-22T08:39:43.774Z,78.21
2023-03-22T08:42:10.804Z,75.28
2023-03-22T08:44:37.985Z,74.86
2023-03-22T08:47:14.076Z,76.13
2023-03-22T08:49:47.807Z,74.75
2023-03-22T08:52:15.601Z,75.03
2023-03-22T08:54:42.630Z,73.43
2023-03-22T08:57:11.090Z,76.38
2023-03-22T08:59:38.127Z,76.95
2023-03-22T09:02:05.059Z,75.26
2023-03-22T09:04:31.853Z,73.38
2023-03-22T09:06:58.718Z,74.45
2023-03-22T09:09:25.540Z,74.91
2023-03-22T09:12:01.246Z,73.50
2023-03-22T09:14:28.093Z,70.35
2023-03-22T09:16:54.876Z,68.43
2023-03-22T09:19:21.920Z,65.47
2023-03-22T09:21:48.948Z,64.49
2023-03-22T09:24:15.769Z,65.48
2023-03-22T09:26:42.626Z,65.08
2023-03-22T09:29:09.769Z,65.05
2023-03-22T09:31:36.674Z,64.41
2023-03-22T09:34:03.730Z,62.24
2023-03-22T09:36:32.500Z,61.38
2023-03-22T09:38:59.588Z,62.76
2023-03-22T09:41:29.272Z,61.63
2023-03-22T09:44:02.619Z,60.01
2023-03-22T09:46:37.146Z,62.65
2023-03-22T09:49:09.862Z,63.02
2023-03-22T09:51:38.803Z,61.47
2023-03-22T09:54:14.724Z,62.26
2023-03-22T09:56:42.046Z,58.67
2023-03-22T09:59:24.778Z,61.59
2023-03-22T10:02:11.448Z,62.37
2023-03-22T10:04:51.948Z,63.15
2023-03-22T10:07:45.179Z,63.45
2023-03-22T10:10:21.968Z,65.76
2023-03-22T10:13:14.901Z,64.45
2023-03-22T10:15:45.842Z,63.75
2023-03-22T10:18:18.736Z,62.39
2023-03-22T10:21:08.283Z,60.97
2023-03-22T10:24:14.280Z,58.25
2023-03-22T10:26:44.984Z,59.49
2023-03-22T10:29:21.061Z,61.61
2023-03-22T10:31:48.183Z,63.65
2023-03-22T10:34:21.164Z,63.14
2023-03-22T10:36:51.075Z,60.89
2023-03-22T10:39:34.340Z,62.29
2023-03-22T10:42:05.949Z,61.26
2023-03-22T10:44:39.060Z,61.97
2023-03-22T10:47:12.556Z,62.83
2023-03-22T10:49:45.193Z,62.54
2023-03-22T10:52:18.056Z,64.27
2023-03-22T10:54:44.844Z,60.10
2023-03-22T10:57:11.634Z,59.48
2023-03-22T10:59:51.248Z,58.93
2023-03-22T11:02:32.955Z,58.69
2023-03-22T11:05:04.100Z,59.67
2023-03-22T11:07:38.706Z,58.81
2023-03-22T11:10:08.530Z,58.74
2023-03-22T11:12:52.186Z,59.22
2023-03-22T11:15:32.105Z,56.71
2023-03-22T11:18:01.270Z,57.53
2023-03-22T11:20:30.677Z,58.35
2023-03-22T11:23:02.908Z,57.26
2023-03-22T11:25:46.587Z,56.11
2023-03-22T11:28:22.647Z,56.78
2023-03-22T11:31:02.108Z,57.78
2023-03-22T11:33:29.727Z,56.14
2023-03-22T11:36:03.643Z,55.03
2023-03-22T11:38:36.735Z,57.53
2023-03-22T11:41:24.802Z,55.01
2023-03-22T11:44:04.875Z,56.25
2023-03-22T11:46:32.038Z,57.64
2023-03-22T11:49:06.212Z,56.27
2023-03-22T11:51:37.624Z,57.45
2023-03-22T11:54:16.009Z,58.49
2023-03-22T11:56:46.339Z,56.42
2023-03-22T11:59:59.422Z,56.90
2023-03-22T12:02:30.223Z,55.92
2023-03-22T12:05:14.076Z,55.65
2023-03-22T12:07:41.876Z,54.92
2023-03-22T12:10:21.591Z,57.13
2023-03-22T12:12:58.844Z,56.14
2023-03-22T12:15:42.886Z,55.23
2023-03-22T12:18:36.433Z,54.99
2023-03-22T12:21:03.306Z,53.97
2023-03-22T12:23:32.998Z,52.83
2023-03-22T12:26:18.797Z,53.79
2023-03-22T12:29:16.903Z,54.18
2023-03-22T12:31:57.739Z,55.62
2023-03-22T12:34:34.173Z,53.40
2023-03-22T12:37:05.545Z,51.70
2023-03-22T12:39:39.399Z,51.52
2023-03-22T12:42:51.845Z,49.84
2023-03-22T12:45:28.819Z,47.92
2023-03-22T12:48:08.303Z,48.84
2023-03-22T12:50:42.186Z,50.91
2023-03-22T12:53:18.588Z,51.27
2023-03-22T12:55:49.092Z,48.80
2023-03-22T12:58:22.492Z,48.13
2023-03-22T13:00:55.436Z,47.94
2023-03-22T13:03:32.586Z,48.89
2023-03-22T13:06:06.374Z,49.97
2023-03-22T13:09:04.069Z,48.76
2023-03-22T13:11:32.665Z,50.02
2023-03-22T13:14:00.587Z,50.12
2023-03-22T13:17:01.148Z,52.12
2023-03-22T13:19:37.022Z,50.09
2023-03-22T13:22:16.056Z,48.77
2023-03-22T13:25:13.299Z,48.49
2023-03-22T13:27:46.625Z,48.67
2023-03-22T13:30:26.268Z,47.66
2023-03-22T13:33:04.442Z,49.10
2023-03-22T13:36:07.384Z,49.95
2023-03-22T13:38:42.553Z,49.93
2023-03-22T13:41:16.941Z,51.14
2023-03-22T13:43:43.793Z,51.46
2023-03-22T13:46:22.239Z,50.71
2023-03-22T13:48:49.879Z,51.14
2023-03-22T13:51:22.987Z,51.26
2023-03-22T13:54:17.477Z,50.48
2023-03-22T13:56:44.591Z,48.86
2023-03-22T13:59:21.140Z,49.69
2023-03-22T14:01:53.869Z,49.03
2023-03-22T14:04:40.774Z,49.30
2023-03-22T14:07:11.412Z,49.45
2023-03-22T14:09:51.620Z,50.29
2023-03-22T14:12:22.997Z,50.79
2023-03-22T14:14:55.986Z,49.46
2023-03-22T14:17:35.405Z,49.10
2023-03-22T14:20:06.572Z,48.85
2023-03-22T14:52:44.771Z,50.84
2023-03-22T14:55:30.878Z,51.69
2023-03-22T14:57:59.699Z,50.97
2023-03-22T15:00:28.545Z,50.91
2023-03-22T15:03:04.866Z,51.05
2023-03-22T15:05:40.734Z,51.43
2023-03-22T15:08:18.629Z,51.56
2023-03-22T15:10:52.183Z,52.36
2023-03-22T15:13:21.487Z,52.02
2023-03-22T15:15:49.032Z,51.92
2023-03-22T15:18:21.622Z,51.93
2023-03-22T15:20:52.112Z,52.17
2023-03-22T15:23:32.134Z,52.84
2023-03-22T15:26:00.900Z,51.75
2023-03-22T15:28:31.815Z,52.94
2023-03-22T15:31:02.188Z,53.18
2023-03-22T15:33:36.502Z,53.07
2023-03-22T15:36:04.839Z,54.19
2023-03-22T15:38:43.285Z,54.30
2023-03-22T15:41:27.451Z,54.47
2023-03-22T15:44:15.238Z,54.34
2023-03-22T15:46:57.003Z,53.90
2023-03-22T15:49:45.089Z,53.57
2023-03-22T15:52:29.975Z,54.58
2023-03-22T15:55:00.163Z,53.51
2023-03-22T15:57:39.825Z,53.53
2023-03-22T16:00:12.317Z,54.09
2023-03-22T16:03:12.627Z,53.79
2023-03-22T16:05:45.149Z,55.02
2023-03-22T16:08:14.909Z,53.50
2023-03-22T16:10:44.146Z,53.34
2023-03-22T16:13:33.398Z,53.00
2023-03-22T16:16:01.165Z,52.68
2023-03-22T16:18:28.047Z,52.07
2023-03-22T16:20:56.082Z,52.19
2023-03-22T16:23:24.100Z,53.79
2023-03-22T16:25:51.080Z,53.28
2023-03-22T16:28:18.032Z,54.05
2023-03-22T16:30:45.601Z,53.28
2023-03-22T16:33:17.665Z,53.50
2023-03-22T16:35:47.045Z,54.73
2023-03-22T16:38:15.986Z,54.84
2023-03-22T16:40:48.578Z,55.33
2023-03-22T16:43:15.712Z,54.99
2023-03-22T16:45:43.751Z,55.10
2023-03-22T16:48:10.979Z,55.77
2023-03-22T16:50:42.940Z,56.12
2023-03-22T16:53:15.597Z,56.06
2023-03-22T16:55:42.750Z,55.98
2023-03-22T16:58:09.512Z,55.96
2023-03-22T17:00:36.653Z,56.05
2023-03-22T17:03:08.069Z,56.28
2023-03-22T17:05:39.214Z,56.34
2023-03-22T17:08:14.525Z,56.76
2023-03-22T17:10:41.362Z,57.73
2023-03-22T17:13:08.489Z,57.84
2023-03-22T17:15:41.966Z,58.77
2023-03-22T17:18:13.106Z,59.51
2023-03-22T17:20:41.220Z,59.41
2023-03-22T17:23:10.221Z,59.79
2023-03-22T17:25:40.222Z,60.83
2023-03-22T17:28:10.043Z,60.94
2023-03-22T17:30:38.082Z,61.89
2023-03-22T17:35:35.481Z,63.40
2023-03-22T17:38:03.017Z,63.50
2023-03-22T17:40:37.741Z,63.76
2023-03-22T17:43:16.644Z,64.31
2023-03-22T17:46:16.032Z,65.32
2023-03-22T17:48:30.454Z,65.11
2023-03-22T17:50:57.394Z,65.63
2023-03-22T17:54:12.971Z,65.66
2023-03-22T17:56:42.126Z,66.12
2023-03-22T17:58:57.923Z,66.72
2023-03-22T18:01:24.800Z,66.57
2023-03-22T18:03:51.718Z,66.95
2023-03-22T18:06:18.716Z,66.65
2023-03-22T18:08:45.642Z,66.69
2023-03-22T18:11:15.881Z,66.78
2023-03-22T18:13:44.497Z,67.04
2023-03-22T18:16:12.095Z,67.20
2023-03-22T18:18:39.340Z,67.00
2023-03-22T18:21:08.822Z,67.18
2023-03-22T18:23:36.191Z,66.77
2023-03-22T18:26:08.167Z,66.50
2023-03-22T18:28:42.757Z,66.79
2023-03-22T18:31:10.748Z,67.26
2023-03-22T18:33:41.459Z,66.20
2023-03-22T18:36:09.341Z,66.35
2023-03-22T18:39:06.324Z,66.79
2023-03-22T18:43:52.628Z,66.02
2023-03-22T18:46:20.014Z,65.85
2023-03-22T18:48:47.026Z,65.83
2023-03-22T18:51:13.932Z,66.46
2023-03-22T18:53:41.155Z,65.78
2023-03-22T18:56:09.848Z,65.93
2023-03-22T18:58:36.977Z,65.68
2023-03-22T19:01:05.604Z,66.33
2023-03-22T19:03:35.664Z,66.51
2023-03-22T19:06:07.983Z,66.61
2023-03-22T19:08:35.058Z,65.78
2023-03-22T19:11:02.491Z,65.29
2023-03-22T19:13:29.502Z,65.32
2023-03-22T19:16:00.698Z,66.20
2023-03-22T19:18:29.214Z,65.57
2023-03-22T19:21:10.067Z,65.49
2023-03-22T19:23:42.186Z,66.65
2023-03-22T19:26:09.454Z,66.41
2023-03-22T19:28:37.856Z,66.60
2023-03-22T19:31:06.453Z,66.06
2023-03-22T19:36:06.941Z,66.76
2023-03-22T19:38:34.648Z,66.79
2023-03-22T19:41:38.573Z,66.69
2023-03-22T19:43:55.422Z,66.40
2023-03-22T19:46:22.142Z,64.90
2023-03-22T19:48:49.034Z,65.51
2023-03-22T19:51:17.427Z,64.92
2023-03-22T19:54:17.123Z,64.86
2023-03-22T19:56:31.532Z,64.58
2023-03-22T19:58:58.944Z,65.60
2023-03-22T20:01:26.000Z,65.48
2023-03-22T20:03:53.527Z,65.81
2023-03-22T20:06:20.336Z,65.48
2023-03-22T20:08:47.277Z,65.16
2023-03-22T20:11:25.834Z,65.25
2023-03-22T20:13:58.709Z,65.33
2023-03-22T20:16:26.203Z,65.14
2023-03-22T20:18:53.235Z,64.87
2023-03-22T20:21:20.130Z,65.43
2023-03-22T20:23:46.886Z,64.51
2023-03-22T20:26:13.761Z,65.47
2023-03-22T20:28:40.663Z,65.72
2023-03-22T20:31:09.226Z,65.21
2023-03-22T20:33:37.141Z,66.07
2023-03-22T20:36:05.851Z,64.85
2023-03-22T20:38:33.949Z,64.87
2023-03-22T20:41:01.056Z,63.62
2023-03-22T20:43:28.271Z,63.52
2023-03-22T20:45:55.060Z,64.96
2023-03-22T20:48:22.207Z,64.97
2023-03-22T20:50:52.468Z,65.05
2023-03-22T20:53:19.904Z,64.72
2023-03-22T20:55:47.238Z,65.62
2023-03-22T20:58:16.460Z,65.17
2023-03-22T21:00:46.863Z,64.54
2023-03-22T21:03:14.641Z,64.05
2023-03-22T21:05:42.373Z,64.25
2023-03-22T21:08:10.689Z,64.42
2023-03-22T21:10:38.046Z,65.12
2023-03-22T21:13:05.150Z,65.39
2023-03-22T21:15:32.171Z,65.06
2023-03-22T21:17:59.224Z,64.91
2023-03-22T21:20:32.310Z,65.44
2023-03-22T21:22:59.576Z,66.13
2023-03-22T21:25:26.611Z,66.82
2023-03-22T21:27:54.275Z,66.83
2023-03-22T21:30:22.571Z,66.15
2023-03-22T21:32:49.368Z,66.66
2023-03-22T21:35:16.309Z,65.97
2023-03-22T21:37:43.381Z,67.21
2023-03-22T21:40:12.508Z,66.99
2023-03-22T21:42:58.184Z,66.46
2023-03-22T21:45:27.654Z,66.93
2023-03-22T21:47:58.263Z,67.47
2023-03-22T21:50:26.166Z,67.56
2023-03-22T21:52:53.380Z,68.60
2023-03-22T21:55:20.653Z,68.58
2023-03-22T21:57:47.823Z,69.11
2023-03-22T22:00:19.882Z,69.52
2023-03-22T22:02:50.891Z,69.74
2023-03-22T22:05:18.760Z,69.73
2023-03-22T22:07:47.594Z,69.85
2023-03-22T22:10:15.286Z,69.92
2023-03-22T22:12:42.335Z,69.42
2023-03-22T22:15:09.938Z,68.96
2023-03-22T22:17:36.886Z,69.55
2023-03-22T22:20:11.755Z,69.62
2023-03-22T22:22:41.454Z,69.17
2023-03-22T22:25:14.256Z,69.39
2023-03-22T22:27:41.196Z,69.75
2023-03-22T22:30:10.979Z,69.79
2023-03-22T22:32:40.515Z,69.04
2023-03-22T22:35:09.493Z,69.98
2023-03-22T22:37:40.624Z,69.53
2023-03-22T22:40:15.196Z,69.61
2023-03-22T22:42:42.488Z,70.05
2023-03-22T22:45:10.022Z,69.01
2023-03-22T22:47:37.014Z,69.65
2023-03-22T22:50:04.121Z,70.22
2023-03-22T22:52:36.338Z,69.58
2023-03-22T22:55:13.595Z,69.05
2023-03-22T22:57:43.566Z,70.17
2023-03-22T23:00:13.734Z,69.65
2023-03-22T23:02:43.252Z,70.23
2023-03-22T23:05:12.042Z,70.01
2023-03-22T23:07:44.245Z,70.00
2023-03-22T23:10:11.193Z,70.18
2023-03-22T23:12:38.194Z,70.18
2023-03-22T23:15:07.333Z,70.45
2023-03-22T23:17:40.430Z,70.41
2023-03-22T23:20:13.501Z,70.81
2023-03-22T23:22:45.120Z,70.15
2023-03-22T23:25:13.733Z,71.00
2023-03-22T23:27:40.913Z,70.34
2023-03-22T23:30:14.781Z,70.50
2023-03-22T23:32:42.207Z,69.46
2023-03-22T23:35:09.583Z,70.22
2023-03-22T23:37:36.545Z,68.77
2023-03-22T23:40:10.638Z,68.88
2023-03-22T23:42:40.729Z,69.28
2023-03-22T23:45:09.762Z,69.29
2023-03-22T23:47:40.095Z,70.51
2023-03-22T23:50:07.580Z,70.30
2023-03-22T23:52:34.386Z,70.85
2023-03-22T23:55:02.077Z,71.10
2023-03-22T23:57:29.428Z,71.39
2023-03-22T23:59:56.673Z,72.19
